sensor_id;sensor_type;location;lat;lon;timestamp;P1;durP1;ratioP1;P2;durP2;ratioP2
36747;SDS011;22716;51.556;5.080;2023-06-14T00:00:16;7.72;;;3.65;;
36747;SDS011;22716;51.556;5.080;2023-06-14T00:02:42;8.43;;;3.30;;
36747;SDS011;22716;51.556;5.080;2023-06-14T00:05:09;10.13;;;4.00;;
36747;SDS011;22716;51.556;5.080;2023-06-14T00:07:37;9.27;;;3.60;;
36747;SDS011;22716;51.556;5.080;2023-06-14T00:10:10;7.57;;;3.23;;
36747;SDS011;22716;51.556;5.080;2023-06-14T00:12:38;6.18;;;3.00;;
36747;SDS011;22716;51.556;5.080;2023-06-14T00:15:05;8.23;;;3.33;;
36747;SDS011;22716;51.556;5.080;2023-06-14T00:17:34;6.00;;;3.57;;
36747;SDS011;22716;51.556;5.080;2023-06-14T00:20:02;4.70;;;3.47;;
36747;SDS011;22716;51.556;5.080;2023-06-14T00:22:33;5.77;;;2.60;;
36747;SDS011;22716;51.556;5.080;2023-06-14T00:25:02;4.63;;;3.50;;
36747;SDS011;22716;51.556;5.080;2023-06-14T00:27:30;7.57;;;4.05;;
36747;SDS011;22716;51.556;5.080;2023-06-14T00:29:57;5.22;;;3.03;;
36747;SDS011;22716;51.556;5.080;2023-06-14T00:32:24;9.80;;;3.40;;
36747;SDS011;22716;51.556;5.080;2023-06-14T00:34:51;8.05;;;3.35;;
36747;SDS011;22716;51.556;5.080;2023-06-14T00:37:18;5.82;;;3.25;;
36747;SDS011;22716;51.556;5.080;2023-06-14T00:39:44;5.90;;;3.50;;
36747;SDS011;22716;51.556;5.080;2023-06-14T00:42:11;7.77;;;3.20;;
36747;SDS011;22716;51.556;5.080;2023-06-14T00:44:51;5.73;;;3.10;;
36747;SDS011;22716;51.556;5.080;2023-06-14T00:47:18;9.68;;;3.75;;
36747;SDS011;22716;51.556;5.080;2023-06-14T00:49:45;10.67;;;3.17;;
36747;SDS011;22716;51.556;5.080;2023-06-14T00:52:13;8.27;;;3.00;;
36747;SDS011;22716;51.556;5.080;2023-06-14T00:54:41;7.60;;;3.20;;
36747;SDS011;22716;51.556;5.080;2023-06-14T00:57:09;3.83;;;2.77;;
36747;SDS011;22716;51.556;5.080;2023-06-14T00:59:38;4.37;;;3.07;;
36747;SDS011;22716;51.556;5.080;2023-06-14T01:02:10;6.33;;;2.90;;
36747;SDS011;22716;51.556;5.080;2023-06-14T01:04:40;6.63;;;3.80;;
36747;SDS011;22716;51.556;5.080;2023-06-14T01:07:11;3.75;;;2.90;;
36747;SDS011;22716;51.556;5.080;2023-06-14T01:09:58;6.90;;;2.73;;
36747;SDS011;22716;51.556;5.080;2023-06-14T01:12:36;5.25;;;3.40;;
36747;SDS011;22716;51.556;5.080;2023-06-14T01:15:10;12.95;;;3.80;;
36747;SDS011;22716;51.556;5.080;2023-06-14T01:17:41;5.90;;;2.67;;
36747;SDS011;22716;51.556;5.080;2023-06-14T01:20:11;5.87;;;3.17;;
36747;SDS011;22716;51.556;5.080;2023-06-14T01:22:47;7.83;;;3.57;;
36747;SDS011;22716;51.556;5.080;2023-06-14T01:25:16;6.83;;;3.20;;
36747;SDS011;22716;51.556;5.080;2023-06-14T01:27:47;7.70;;;3.50;;
36747;SDS011;22716;51.556;5.080;2023-06-14T01:30:15;8.98;;;2.92;;
36747;SDS011;22716;51.556;5.080;2023-06-14T01:32:43;6.63;;;2.67;;
36747;SDS011;22716;51.556;5.080;2023-06-14T01:35:11;6.90;;;3.87;;
36747;SDS011;22716;51.556;5.080;2023-06-14T01:37:38;5.53;;;3.50;;
36747;SDS011;22716;51.556;5.080;2023-06-14T01:40:08;11.30;;;2.95;;
36747;SDS011;22716;51.556;5.080;2023-06-14T01:42:37;6.82;;;3.40;;
36747;SDS011;22716;51.556;5.080;2023-06-14T01:45:05;8.45;;;3.92;;
36747;SDS011;22716;51.556;5.080;2023-06-14T01:47:33;6.33;;;3.40;;
36747;SDS011;22716;51.556;5.080;2023-06-14T01:50:01;12.83;;;3.80;;
36747;SDS011;22716;51.556;5.080;2023-06-14T01:52:29;6.20;;;3.20;;
36747;SDS011;22716;51.556;5.080;2023-06-14T01:54:56;8.57;;;3.63;;
36747;SDS011;22716;51.556;5.080;2023-06-14T01:57:24;10.85;;;3.72;;
36747;SDS011;22716;51.556;5.080;2023-06-14T01:59:52;7.00;;;2.70;;
36747;SDS011;22716;51.556;5.080;2023-06-14T02:02:20;8.23;;;3.30;;
36747;SDS011;22716;51.556;5.080;2023-06-14T02:04:46;4.20;;;2.90;;
36747;SDS011;22716;51.556;5.080;2023-06-14T02:07:13;5.70;;;3.13;;
36747;SDS011;22716;51.556;5.080;2023-06-14T02:09:40;8.70;;;3.77;;
36747;SDS011;22716;51.556;5.080;2023-06-14T02:12:08;6.77;;;2.77;;
36747;SDS011;22716;51.556;5.080;2023-06-14T02:14:37;3.80;;;2.95;;
36747;SDS011;22716;51.556;5.080;2023-06-14T02:17:04;5.57;;;2.63;;
36747;SDS011;22716;51.556;5.080;2023-06-14T02:19:31;8.77;;;3.03;;
36747;SDS011;22716;51.556;5.080;2023-06-14T02:21:58;6.63;;;2.60;;
36747;SDS011;22716;51.556;5.080;2023-06-14T02:24:25;8.23;;;3.10;;
36747;SDS011;22716;51.556;5.080;2023-06-14T02:26:52;4.93;;;3.70;;
36747;SDS011;22716;51.556;5.080;2023-06-14T02:29:19;7.00;;;3.47;;
36747;SDS011;22716;51.556;5.080;2023-06-14T02:31:47;4.17;;;3.13;;
36747;SDS011;22716;51.556;5.080;2023-06-14T02:34:15;8.57;;;4.00;;
36747;SDS011;22716;51.556;5.080;2023-06-14T02:36:43;10.95;;;3.03;;
36747;SDS011;22716;51.556;5.080;2023-06-14T02:39:10;5.60;;;3.03;;
36747;SDS011;22716;51.556;5.080;2023-06-14T02:41:37;4.35;;;3.00;;
36747;SDS011;22716;51.556;5.080;2023-06-14T02:44:05;6.13;;;3.17;;
36747;SDS011;22716;51.556;5.080;2023-06-14T02:46:32;6.25;;;3.60;;
36747;SDS011;22716;51.556;5.080;2023-06-14T02:49:00;4.57;;;2.87;;
36747;SDS011;22716;51.556;5.080;2023-06-14T02:51:27;12.85;;;4.15;;
36747;SDS011;22716;51.556;5.080;2023-06-14T02:53:54;7.05;;;2.60;;
36747;SDS011;22716;51.556;5.080;2023-06-14T02:56:21;6.22;;;3.30;;
36747;SDS011;22716;51.556;5.080;2023-06-14T02:58:48;3.67;;;2.85;;
36747;SDS011;22716;51.556;5.080;2023-06-14T03:01:16;3.45;;;2.92;;
36747;SDS011;22716;51.556;5.080;2023-06-14T03:03:43;4.10;;;2.50;;
36747;SDS011;22716;51.556;5.080;2023-06-14T03:06:11;5.25;;;2.55;;
36747;SDS011;22716;51.556;5.080;2023-06-14T03:08:39;5.77;;;2.83;;
36747;SDS011;22716;51.556;5.080;2023-06-14T03:11:07;4.53;;;2.80;;
36747;SDS011;22716;51.556;5.080;2023-06-14T03:13:34;7.40;;;2.80;;
36747;SDS011;22716;51.556;5.080;2023-06-14T03:16:00;4.97;;;3.17;;
36747;SDS011;22716;51.556;5.080;2023-06-14T03:18:29;7.73;;;3.00;;
36747;SDS011;22716;51.556;5.080;2023-06-14T03:21:00;5.05;;;2.90;;
36747;SDS011;22716;51.556;5.080;2023-06-14T03:23:29;6.25;;;3.25;;
36747;SDS011;22716;51.556;5.080;2023-06-14T03:25:56;5.57;;;2.87;;
36747;SDS011;22716;51.556;5.080;2023-06-14T03:28:23;5.77;;;3.43;;
36747;SDS011;22716;51.556;5.080;2023-06-14T03:30:51;9.57;;;3.78;;
36747;SDS011;22716;51.556;5.080;2023-06-14T03:33:17;5.07;;;2.80;;
36747;SDS011;22716;51.556;5.080;2023-06-14T03:35:44;6.30;;;2.17;;
36747;SDS011;22716;51.556;5.080;2023-06-14T03:38:11;4.50;;;2.53;;
36747;SDS011;22716;51.556;5.080;2023-06-14T03:40:39;10.63;;;2.78;;
36747;SDS011;22716;51.556;5.080;2023-06-14T03:43:06;4.40;;;2.17;;
36747;SDS011;22716;51.556;5.080;2023-06-14T03:45:33;2.60;;;2.40;;
36747;SDS011;22716;51.556;5.080;2023-06-14T03:48:00;5.87;;;3.10;;
36747;SDS011;22716;51.556;5.080;2023-06-14T03:50:28;5.55;;;3.03;;
36747;SDS011;22716;51.556;5.080;2023-06-14T03:52:55;4.87;;;2.77;;
36747;SDS011;22716;51.556;5.080;2023-06-14T03:55:22;3.27;;;2.43;;
36747;SDS011;22716;51.556;5.080;2023-06-14T03:57:52;4.35;;;2.83;;
36747;SDS011;22716;51.556;5.080;2023-06-14T04:00:18;4.28;;;3.00;;
36747;SDS011;22716;51.556;5.080;2023-06-14T04:02:45;16.77;;;3.40;;
36747;SDS011;22716;51.556;5.080;2023-06-14T04:05:12;7.93;;;3.13;;
36747;SDS011;22716;51.556;5.080;2023-06-14T04:07:41;10.65;;;3.10;;
36747;SDS011;22716;51.556;5.080;2023-06-14T04:10:10;10.70;;;2.83;;
36747;SDS011;22716;51.556;5.080;2023-06-14T04:12:38;6.85;;;2.85;;
36747;SDS011;22716;51.556;5.080;2023-06-14T04:15:07;8.77;;;3.10;;
36747;SDS011;22716;51.556;5.080;2023-06-14T04:17:36;5.03;;;3.30;;
36747;SDS011;22716;51.556;5.080;2023-06-14T04:20:04;9.07;;;2.73;;
36747;SDS011;22716;51.556;5.080;2023-06-14T04:22:35;3.55;;;2.33;;
36747;SDS011;22716;51.556;5.080;2023-06-14T04:25:02;6.13;;;2.80;;
36747;SDS011;22716;51.556;5.080;2023-06-14T04:27:31;7.22;;;3.38;;
36747;SDS011;22716;51.556;5.080;2023-06-14T04:30:01;6.43;;;2.80;;
36747;SDS011;22716;51.556;5.080;2023-06-14T04:32:30;8.88;;;4.68;;
36747;SDS011;22716;51.556;5.080;2023-06-14T04:34:58;5.80;;;2.55;;
36747;SDS011;22716;51.556;5.080;2023-06-14T04:37:27;5.33;;;2.53;;
36747;SDS011;22716;51.556;5.080;2023-06-14T04:39:55;5.68;;;2.92;;
36747;SDS011;22716;51.556;5.080;2023-06-14T04:42:23;16.52;;;3.08;;
36747;SDS011;22716;51.556;5.080;2023-06-14T04:44:56;7.27;;;2.73;;
36747;SDS011;22716;51.556;5.080;2023-06-14T04:47:24;10.15;;;2.90;;
36747;SDS011;22716;51.556;5.080;2023-06-14T04:49:57;5.68;;;2.83;;
36747;SDS011;22716;51.556;5.080;2023-06-14T04:52:25;6.93;;;2.77;;
36747;SDS011;22716;51.556;5.080;2023-06-14T04:54:55;7.77;;;2.67;;
36747;SDS011;22716;51.556;5.080;2023-06-14T04:57:22;6.97;;;2.83;;
36747;SDS011;22716;51.556;5.080;2023-06-14T04:59:51;7.75;;;2.60;;
36747;SDS011;22716;51.556;5.080;2023-06-14T05:02:20;8.68;;;3.75;;
36747;SDS011;22716;51.556;5.080;2023-06-14T05:04:49;11.40;;;3.17;;
36747;SDS011;22716;51.556;5.080;2023-06-14T05:07:17;6.60;;;3.03;;
36747;SDS011;22716;51.556;5.080;2023-06-14T05:09:45;6.70;;;3.00;;
36747;SDS011;22716;51.556;5.080;2023-06-14T05:12:12;4.17;;;3.30;;
36747;SDS011;22716;51.556;5.080;2023-06-14T05:14:39;14.77;;;3.38;;
36747;SDS011;22716;51.556;5.080;2023-06-14T05:17:06;7.00;;;3.20;;
36747;SDS011;22716;51.556;5.080;2023-06-14T05:19:33;6.18;;;2.70;;
36747;SDS011;22716;51.556;5.080;2023-06-14T05:21:59;6.70;;;3.93;;
36747;SDS011;22716;51.556;5.080;2023-06-14T05:24:29;8.87;;;3.30;;
36747;SDS011;22716;51.556;5.080;2023-06-14T05:26:57;7.20;;;3.07;;
36747;SDS011;22716;51.556;5.080;2023-06-14T05:29:24;11.00;;;3.80;;
36747;SDS011;22716;51.556;5.080;2023-06-14T05:31:51;4.00;;;2.55;;
36747;SDS011;22716;51.556;5.080;2023-06-14T05:34:18;13.45;;;2.78;;
36747;SDS011;22716;51.556;5.080;2023-06-14T05:36:45;9.87;;;3.17;;
36747;SDS011;22716;51.556;5.080;2023-06-14T05:39:12;8.90;;;2.67;;
36747;SDS011;22716;51.556;5.080;2023-06-14T05:41:41;8.90;;;3.17;;
36747;SDS011;22716;51.556;5.080;2023-06-14T05:44:08;11.73;;;4.60;;
36747;SDS011;22716;51.556;5.080;2023-06-14T05:46:35;7.53;;;3.17;;
36747;SDS011;22716;51.556;5.080;2023-06-14T05:49:02;7.60;;;2.93;;
36747;SDS011;22716;51.556;5.080;2023-06-14T05:51:28;4.37;;;2.73;;
36747;SDS011;22716;51.556;5.080;2023-06-14T05:53:55;4.13;;;3.33;;
36747;SDS011;22716;51.556;5.080;2023-06-14T05:56:22;8.53;;;3.47;;
36747;SDS011;22716;51.556;5.080;2023-06-14T05:58:50;18.67;;;4.27;;
36747;SDS011;22716;51.556;5.080;2023-06-14T06:01:17;13.68;;;4.50;;
36747;SDS011;22716;51.556;5.080;2023-06-14T06:03:44;10.68;;;3.85;;
36747;SDS011;22716;51.556;5.080;2023-06-14T06:06:12;16.23;;;3.80;;
36747;SDS011;22716;51.556;5.080;2023-06-14T06:08:38;9.87;;;4.10;;
36747;SDS011;22716;51.556;5.080;2023-06-14T06:11:05;7.88;;;3.45;;
36747;SDS011;22716;51.556;5.080;2023-06-14T06:13:32;10.00;;;4.03;;
36747;SDS011;22716;51.556;5.080;2023-06-14T06:16:01;10.97;;;4.03;;
36747;SDS011;22716;51.556;5.080;2023-06-14T06:18:28;8.67;;;4.07;;
36747;SDS011;22716;51.556;5.080;2023-06-14T06:20:55;16.88;;;3.78;;
36747;SDS011;22716;51.556;5.080;2023-06-14T06:23:21;6.73;;;3.40;;
36747;SDS011;22716;51.556;5.080;2023-06-14T06:25:48;12.77;;;4.33;;
36747;SDS011;22716;51.556;5.080;2023-06-14T06:28:15;9.25;;;3.13;;
36747;SDS011;22716;51.556;5.080;2023-06-14T06:30:42;17.58;;;4.70;;
36747;SDS011;22716;51.556;5.080;2023-06-14T06:33:11;9.47;;;4.27;;
36747;SDS011;22716;51.556;5.080;2023-06-14T06:35:38;8.40;;;4.00;;
36747;SDS011;22716;51.556;5.080;2023-06-14T06:38:04;11.35;;;3.90;;
36747;SDS011;22716;51.556;5.080;2023-06-14T06:40:31;11.13;;;4.30;;
36747;SDS011;22716;51.556;5.080;2023-06-14T06:42:58;6.93;;;3.60;;
36747;SDS011;22716;51.556;5.080;2023-06-14T06:45:25;8.23;;;3.17;;
36747;SDS011;22716;51.556;5.080;2023-06-14T06:47:52;6.83;;;3.43;;
36747;SDS011;22716;51.556;5.080;2023-06-14T06:50:20;9.87;;;3.83;;
36747;SDS011;22716;51.556;5.080;2023-06-14T06:52:48;9.63;;;3.50;;
36747;SDS011;22716;51.556;5.080;2023-06-14T06:55:15;6.13;;;3.17;;
36747;SDS011;22716;51.556;5.080;2023-06-14T06:57:43;24.17;;;4.13;;
36747;SDS011;22716;51.556;5.080;2023-06-14T07:00:10;5.72;;;3.40;;
36747;SDS011;22716;51.556;5.080;2023-06-14T07:02:38;7.15;;;3.45;;
36747;SDS011;22716;51.556;5.080;2023-06-14T07:05:04;13.90;;;3.63;;
36747;SDS011;22716;51.556;5.080;2023-06-14T07:07:33;5.53;;;3.83;;
36747;SDS011;22716;51.556;5.080;2023-06-14T07:10:00;13.45;;;4.65;;
36747;SDS011;22716;51.556;5.080;2023-06-14T07:12:29;26.58;;;4.85;;
36747;SDS011;22716;51.556;5.080;2023-06-14T07:14:59;31.63;;;9.33;;
36747;SDS011;22716;51.556;5.080;2023-06-14T07:17:26;15.50;;;4.73;;
36747;SDS011;22716;51.556;5.080;2023-06-14T07:19:53;5.45;;;3.72;;
36747;SDS011;22716;51.556;5.080;2023-06-14T07:22:20;15.55;;;4.32;;
36747;SDS011;22716;51.556;5.080;2023-06-14T07:24:48;10.48;;;3.83;;
36747;SDS011;22716;51.556;5.080;2023-06-14T07:27:15;9.07;;;3.85;;
36747;SDS011;22716;51.556;5.080;2023-06-14T07:29:42;7.53;;;3.17;;
36747;SDS011;22716;51.556;5.080;2023-06-14T07:32:08;15.23;;;3.92;;
36747;SDS011;22716;51.556;5.080;2023-06-14T07:34:35;8.25;;;3.22;;
36747;SDS011;22716;51.556;5.080;2023-06-14T07:37:02;7.33;;;3.33;;
36747;SDS011;22716;51.556;5.080;2023-06-14T07:39:29;5.10;;;3.38;;
36747;SDS011;22716;51.556;5.080;2023-06-14T07:41:57;7.73;;;3.10;;
36747;SDS011;22716;51.556;5.080;2023-06-14T07:44:24;4.05;;;2.92;;
36747;SDS011;22716;51.556;5.080;2023-06-14T07:46:50;8.18;;;3.05;;
36747;SDS011;22716;51.556;5.080;2023-06-14T07:49:17;12.07;;;4.07;;
36747;SDS011;22716;51.556;5.080;2023-06-14T07:51:44;6.90;;;3.70;;
36747;SDS011;22716;51.556;5.080;2023-06-14T07:54:12;17.10;;;3.65;;
36747;SDS011;22716;51.556;5.080;2023-06-14T07:56:39;8.65;;;3.05;;
36747;SDS011;22716;51.556;5.080;2023-06-14T07:59:07;9.50;;;3.53;;
36747;SDS011;22716;51.556;5.080;2023-06-14T08:01:34;5.82;;;2.83;;
36747;SDS011;22716;51.556;5.080;2023-06-14T08:04:01;5.07;;;2.92;;
36747;SDS011;22716;51.556;5.080;2023-06-14T08:06:28;4.40;;;2.63;;
36747;SDS011;22716;51.556;5.080;2023-06-14T08:08:55;9.50;;;2.53;;
36747;SDS011;22716;51.556;5.080;2023-06-14T08:11:22;6.22;;;3.20;;
36747;SDS011;22716;51.556;5.080;2023-06-14T08:13:50;10.35;;;3.67;;
36747;SDS011;22716;51.556;5.080;2023-06-14T08:16:18;12.10;;;3.92;;
36747;SDS011;22716;51.556;5.080;2023-06-14T08:18:44;8.60;;;2.57;;
36747;SDS011;22716;51.556;5.080;2023-06-14T08:21:11;7.85;;;3.35;;
36747;SDS011;22716;51.556;5.080;2023-06-14T08:23:40;16.98;;;4.47;;
36747;SDS011;22716;51.556;5.080;2023-06-14T08:26:08;6.15;;;3.08;;
36747;SDS011;22716;51.556;5.080;2023-06-14T08:28:35;8.77;;;3.40;;
36747;SDS011;22716;51.556;5.080;2023-06-14T08:31:02;7.72;;;2.95;;
36747;SDS011;22716;51.556;5.080;2023-06-14T08:33:30;17.90;;;3.33;;
36747;SDS011;22716;51.556;5.080;2023-06-14T08:35:59;10.48;;;2.88;;
36747;SDS011;22716;51.556;5.080;2023-06-14T08:38:26;12.20;;;3.72;;
36747;SDS011;22716;51.556;5.080;2023-06-14T08:40:52;7.68;;;3.90;;
36747;SDS011;22716;51.556;5.080;2023-06-14T08:43:24;11.48;;;3.20;;
36747;SDS011;22716;51.556;5.080;2023-06-14T08:45:52;18.45;;;3.90;;
36747;SDS011;22716;51.556;5.080;2023-06-14T08:48:24;8.30;;;3.07;;
36747;SDS011;22716;51.556;5.080;2023-06-14T08:50:54;9.15;;;2.95;;
36747;SDS011;22716;51.556;5.080;2023-06-14T08:53:28;12.57;;;3.00;;
36747;SDS011;22716;51.556;5.080;2023-06-14T08:55:57;8.77;;;2.90;;
36747;SDS011;22716;51.556;5.080;2023-06-14T08:58:27;10.93;;;3.27;;
36747;SDS011;22716;51.556;5.080;2023-06-14T09:00:56;14.68;;;3.90;;
36747;SDS011;22716;51.556;5.080;2023-06-14T09:03:24;9.63;;;2.50;;
36747;SDS011;22716;51.556;5.080;2023-06-14T09:05:56;7.85;;;2.60;;
36747;SDS011;22716;51.556;5.080;2023-06-14T09:08:25;9.93;;;3.53;;
36747;SDS011;22716;51.556;5.080;2023-06-14T09:10:52;6.83;;;3.37;;
36747;SDS011;22716;51.556;5.080;2023-06-14T09:13:19;8.52;;;2.10;;
36747;SDS011;22716;51.556;5.080;2023-06-14T09:15:46;12.60;;;3.20;;
36747;SDS011;22716;51.556;5.080;2023-06-14T09:18:12;11.88;;;2.50;;
36747;SDS011;22716;51.556;5.080;2023-06-14T09:20:39;6.00;;;2.13;;
36747;SDS011;22716;51.556;5.080;2023-06-14T09:23:08;11.00;;;3.47;;
36747;SDS011;22716;51.556;5.080;2023-06-14T09:25:45;8.52;;;2.85;;
36747;SDS011;22716;51.556;5.080;2023-06-14T09:28:12;5.88;;;2.58;;
36747;SDS011;22716;51.556;5.080;2023-06-14T09:30:39;10.37;;;2.37;;
36747;SDS011;22716;51.556;5.080;2023-06-14T09:33:08;3.15;;;2.30;;
36747;SDS011;22716;51.556;5.080;2023-06-14T09:35:35;9.00;;;2.65;;
36747;SDS011;22716;51.556;5.080;2023-06-14T09:38:02;4.13;;;2.35;;
36747;SDS011;22716;51.556;5.080;2023-06-14T09:40:32;10.63;;;2.23;;
36747;SDS011;22716;51.556;5.080;2023-06-14T09:43:00;8.63;;;2.58;;
36747;SDS011;22716;51.556;5.080;2023-06-14T09:45:30;8.38;;;2.00;;
36747;SDS011;22716;51.556;5.080;2023-06-14T09:47:57;4.93;;;1.85;;
36747;SDS011;22716;51.556;5.080;2023-06-14T09:50:24;5.90;;;2.40;;
36747;SDS011;22716;51.556;5.080;2023-06-14T09:52:52;3.75;;;1.67;;
36747;SDS011;22716;51.556;5.080;2023-06-14T09:55:23;3.70;;;2.15;;
36747;SDS011;22716;51.556;5.080;2023-06-14T09:57:54;7.78;;;2.10;;
36747;SDS011;22716;51.556;5.080;2023-06-14T10:00:23;4.25;;;1.50;;
36747;SDS011;22716;51.556;5.080;2023-06-14T10:02:53;4.10;;;1.70;;
36747;SDS011;22716;51.556;5.080;2023-06-14T10:05:22;4.50;;;1.80;;
36747;SDS011;22716;51.556;5.080;2023-06-14T10:07:52;4.40;;;1.50;;
36747;SDS011;22716;51.556;5.080;2023-06-14T10:10:23;5.15;;;1.80;;
36747;SDS011;22716;51.556;5.080;2023-06-14T10:12:49;1.98;;;1.30;;
36747;SDS011;22716;51.556;5.080;2023-06-14T10:15:19;1.98;;;1.52;;
36747;SDS011;22716;51.556;5.080;2023-06-14T10:17:56;6.50;;;1.52;;
36747;SDS011;22716;51.556;5.080;2023-06-14T10:20:28;3.67;;;1.38;;
36747;SDS011;22716;51.556;5.080;2023-06-14T10:23:03;3.65;;;1.27;;
36747;SDS011;22716;51.556;5.080;2023-06-14T10:28:05;2.97;;;1.30;;
36747;SDS011;22716;51.556;5.080;2023-06-14T10:33:32;4.03;;;1.10;;
36747;SDS011;22716;51.556;5.080;2023-06-14T10:36:07;2.70;;;1.30;;
36747;SDS011;22716;51.556;5.080;2023-06-14T10:38:58;3.95;;;1.40;;
36747;SDS011;22716;51.556;5.080;2023-06-14T10:41:27;26.50;;;2.05;;
36747;SDS011;22716;51.556;5.080;2023-06-14T10:44:10;2.33;;;1.17;;
36747;SDS011;22716;51.556;5.080;2023-06-14T10:46:59;4.57;;;1.10;;
36747;SDS011;22716;51.556;5.080;2023-06-14T10:49:40;8.77;;;1.70;;
36747;SDS011;22716;51.556;5.080;2023-06-14T10:52:09;6.05;;;1.45;;
36747;SDS011;22716;51.556;5.080;2023-06-14T10:55:00;5.30;;;1.23;;
36747;SDS011;22716;51.556;5.080;2023-06-14T10:57:38;3.00;;;1.27;;
36747;SDS011;22716;51.556;5.080;2023-06-14T11:00:06;2.80;;;1.10;;
36747;SDS011;22716;51.556;5.080;2023-06-14T11:02:49;1.73;;;1.10;;
36747;SDS011;22716;51.556;5.080;2023-06-14T11:05:23;6.00;;;1.50;;
36747;SDS011;22716;51.556;5.080;2023-06-14T11:08:07;2.72;;;1.40;;
36747;SDS011;22716;51.556;5.080;2023-06-14T11:10:45;4.20;;;1.17;;
36747;SDS011;22716;51.556;5.080;2023-06-14T11:13:14;6.35;;;2.53;;
36747;SDS011;22716;51.556;5.080;2023-06-14T11:15:43;2.03;;;1.47;;
36747;SDS011;22716;51.556;5.080;2023-06-14T11:18:12;1.80;;;1.17;;
36747;SDS011;22716;51.556;5.080;2023-06-14T11:20:41;5.28;;;1.42;;
36747;SDS011;22716;51.556;5.080;2023-06-14T11:23:08;4.65;;;1.33;;
36747;SDS011;22716;51.556;5.080;2023-06-14T11:25:35;2.80;;;1.50;;
36747;SDS011;22716;51.556;5.080;2023-06-14T11:28:02;5.15;;;1.98;;
36747;SDS011;22716;51.556;5.080;2023-06-14T11:30:29;3.67;;;2.00;;
36747;SDS011;22716;51.556;5.080;2023-06-14T11:32:55;2.20;;;1.50;;
36747;SDS011;22716;51.556;5.080;2023-06-14T11:35:24;1.80;;;1.25;;
36747;SDS011;22716;51.556;5.080;2023-06-14T11:37:52;5.35;;;1.80;;
36747;SDS011;22716;51.556;5.080;2023-06-14T11:40:22;6.63;;;1.60;;
36747;SDS011;22716;51.556;5.080;2023-06-14T11:42:54;3.55;;;1.45;;
36747;SDS011;22716;51.556;5.080;2023-06-14T11:45:26;7.43;;;2.13;;
36747;SDS011;22716;51.556;5.080;2023-06-14T11:47:54;3.13;;;2.13;;
36747;SDS011;22716;51.556;5.080;2023-06-14T11:50:24;2.90;;;1.35;;
36747;SDS011;22716;51.556;5.080;2023-06-14T11:52:52;8.20;;;1.92;;
36747;SDS011;22716;51.556;5.080;2023-06-14T11:55:19;2.97;;;1.38;;
36747;SDS011;22716;51.556;5.080;2023-06-14T11:57:47;6.97;;;1.50;;
36747;SDS011;22716;51.556;5.080;2023-06-14T12:00:14;4.05;;;1.58;;
36747;SDS011;22716;51.556;5.080;2023-06-14T12:02:42;2.50;;;1.25;;
36747;SDS011;22716;51.556;5.080;2023-06-14T12:05:20;3.17;;;1.58;;
36747;SDS011;22716;51.556;5.080;2023-06-14T12:07:48;5.13;;;1.40;;
36747;SDS011;22716;51.556;5.080;2023-06-14T12:10:16;5.28;;;1.25;;
36747;SDS011;22716;51.556;5.080;2023-06-14T12:12:43;3.05;;;1.33;;
36747;SDS011;22716;51.556;5.080;2023-06-14T12:15:10;10.30;;;2.40;;
36747;SDS011;22716;51.556;5.080;2023-06-14T12:17:38;5.65;;;1.80;;
36747;SDS011;22716;51.556;5.080;2023-06-14T12:20:08;5.78;;;1.23;;
36747;SDS011;22716;51.556;5.080;2023-06-14T12:22:39;1.63;;;1.23;;
36747;SDS011;22716;51.556;5.080;2023-06-14T12:25:24;5.20;;;1.88;;
36747;SDS011;22716;51.556;5.080;2023-06-14T12:27:56;4.05;;;1.60;;
36747;SDS011;22716;51.556;5.080;2023-06-14T12:30:23;9.30;;;1.23;;
36747;SDS011;22716;51.556;5.080;2023-06-14T12:32:50;2.47;;;0.98;;
36747;SDS011;22716;51.556;5.080;2023-06-14T12:35:17;16.80;;;4.50;;
36747;SDS011;22716;51.556;5.080;2023-06-14T12:37:45;9.20;;;1.90;;
36747;SDS011;22716;51.556;5.080;2023-06-14T12:40:12;5.18;;;1.60;;
36747;SDS011;22716;51.556;5.080;2023-06-14T12:42:41;3.53;;;1.52;;
36747;SDS011;22716;51.556;5.080;2023-06-14T12:45:08;6.80;;;3.27;;
36747;SDS011;22716;51.556;5.080;2023-06-14T12:47:36;8.10;;;1.98;;
36747;SDS011;22716;51.556;5.080;2023-06-14T12:50:03;1.92;;;1.70;;
36747;SDS011;22716;51.556;5.080;2023-06-14T12:52:31;5.88;;;1.85;;
36747;SDS011;22716;51.556;5.080;2023-06-14T12:55:01;3.28;;;1.85;;
36747;SDS011;22716;51.556;5.080;2023-06-14T12:57:29;6.68;;;1.48;;
36747;SDS011;22716;51.556;5.080;2023-06-14T12:59:57;5.25;;;1.75;;
36747;SDS011;22716;51.556;5.080;2023-06-14T13:02:24;7.88;;;4.45;;
36747;SDS011;22716;51.556;5.080;2023-06-14T13:04:51;2.17;;;1.60;;
36747;SDS011;22716;51.556;5.080;2023-06-14T13:07:17;5.95;;;1.40;;
36747;SDS011;22716;51.556;5.080;2023-06-14T13:09:44;4.28;;;1.58;;
36747;SDS011;22716;51.556;5.080;2023-06-14T13:12:11;10.82;;;1.55;;
36747;SDS011;22716;51.556;5.080;2023-06-14T13:14:38;2.38;;;1.48;;
36747;SDS011;22716;51.556;5.080;2023-06-14T13:17:09;2.90;;;1.50;;
36747;SDS011;22716;51.556;5.080;2023-06-14T13:19:36;1.80;;;1.40;;
36747;SDS011;22716;51.556;5.080;2023-06-14T13:22:03;3.38;;;1.30;;
36747;SDS011;22716;51.556;5.080;2023-06-14T13:24:30;9.82;;;1.67;;
36747;SDS011;22716;51.556;5.080;2023-06-14T13:26:57;3.65;;;1.98;;
36747;SDS011;22716;51.556;5.080;2023-06-14T13:29:24;4.00;;;1.58;;
36747;SDS011;22716;51.556;5.080;2023-06-14T13:31:52;6.00;;;1.83;;
36747;SDS011;22716;51.556;5.080;2023-06-14T13:34:21;5.18;;;1.50;;
36747;SDS011;22716;51.556;5.080;2023-06-14T13:36:49;15.32;;;2.65;;
36747;SDS011;22716;51.556;5.080;2023-06-14T13:39:16;6.78;;;2.22;;
36747;SDS011;22716;51.556;5.080;2023-06-14T13:41:43;5.32;;;1.98;;
36747;SDS011;22716;51.556;5.080;2023-06-14T13:44:09;4.40;;;1.58;;
36747;SDS011;22716;51.556;5.080;2023-06-14T13:46:39;7.45;;;3.03;;
36747;SDS011;22716;51.556;5.080;2023-06-14T13:49:07;2.53;;;1.50;;
36747;SDS011;22716;51.556;5.080;2023-06-14T13:51:37;2.50;;;2.03;;
36747;SDS011;22716;51.556;5.080;2023-06-14T13:54:04;6.90;;;2.33;;
36747;SDS011;22716;51.556;5.080;2023-06-14T13:56:31;2.90;;;1.45;;
36747;SDS011;22716;51.556;5.080;2023-06-14T13:58:57;6.18;;;2.20;;
36747;SDS011;22716;51.556;5.080;2023-06-14T14:01:25;4.85;;;1.40;;
36747;SDS011;22716;51.556;5.080;2023-06-14T14:03:54;3.55;;;1.60;;
36747;SDS011;22716;51.556;5.080;2023-06-14T14:06:21;3.38;;;1.83;;
36747;SDS011;22716;51.556;5.080;2023-06-14T14:08:49;5.05;;;1.30;;
36747;SDS011;22716;51.556;5.080;2023-06-14T14:11:18;1.67;;;1.20;;
36747;SDS011;22716;51.556;5.080;2023-06-14T14:13:45;4.35;;;2.90;;
36747;SDS011;22716;51.556;5.080;2023-06-14T14:16:12;4.65;;;1.65;;
36747;SDS011;22716;51.556;5.080;2023-06-14T14:18:39;1.60;;;1.10;;
36747;SDS011;22716;51.556;5.080;2023-06-14T14:21:06;6.55;;;2.40;;
36747;SDS011;22716;51.556;5.080;2023-06-14T14:23:34;2.65;;;2.10;;
36747;SDS011;22716;51.556;5.080;2023-06-14T14:26:03;5.78;;;2.50;;
36747;SDS011;22716;51.556;5.080;2023-06-14T14:28:30;4.57;;;1.98;;
36747;SDS011;22716;51.556;5.080;2023-06-14T14:30:57;4.35;;;1.48;;
36747;SDS011;22716;51.556;5.080;2023-06-14T14:33:24;1.90;;;1.13;;
36747;SDS011;22716;51.556;5.080;2023-06-14T14:35:51;3.22;;;1.52;;
36747;SDS011;22716;51.556;5.080;2023-06-14T14:38:18;3.00;;;1.20;;
36747;SDS011;22716;51.556;5.080;2023-06-14T14:40:45;5.82;;;1.67;;
36747;SDS011;22716;51.556;5.080;2023-06-14T14:43:13;2.97;;;2.00;;
36747;SDS011;22716;51.556;5.080;2023-06-14T14:45:40;1.30;;;1.08;;
36747;SDS011;22716;51.556;5.080;2023-06-14T14:48:07;1.50;;;1.35;;
36747;SDS011;22716;51.556;5.080;2023-06-14T14:50:33;4.47;;;1.70;;
36747;SDS011;22716;51.556;5.080;2023-06-14T14:53:00;6.38;;;2.45;;
36747;SDS011;22716;51.556;5.080;2023-06-14T14:55:27;10.77;;;1.90;;
36747;SDS011;22716;51.556;5.080;2023-06-14T14:57:54;4.30;;;1.83;;